createdAt,value
2022-12-01T00:01:23.390Z,84.07
2022-12-01T00:03:50.513Z,87.63
2022-12-01T00:06:20.977Z,78.27
2022-12-01T00:09:11.447Z,76.50
2022-12-01T00:11:40.174Z,79.50
2022-12-01T00:14:07.342Z,78.60
2022-12-01T00:16:35.198Z,74.05
2022-12-01T00:19:02.726Z,76.30
2022-12-01T00:21:29.794Z,69.85
2022-12-01T00:23:58.152Z,71.28
2022-12-01T00:26:27.356Z,72.53
2022-12-01T00:28:57.689Z,77.95
2022-12-01T00:31:25.361Z,78.50
2022-12-01T00:33:53.122Z,72.88
2022-12-01T00:36:21.587Z,77.05
2022-12-01T00:38:52.583Z,76.10
2022-12-01T00:41:20.851Z,78.28
2022-12-01T00:43:47.996Z,76.53
2022-12-01T00:46:15.254Z,76.97
2022-12-01T00:48:42.325Z,73.85
2022-12-01T00:51:09.620Z,68.05
2022-12-01T00:53:36.694Z,72.22
2022-12-01T00:56:04.283Z,72.47
2022-12-01T00:58:31.387Z,72.43
2022-12-01T01:01:02.905Z,70.55
2022-12-01T01:03:32.047Z,69.97
2022-12-01T01:06:07.090Z,71.40
2022-12-01T01:08:34.359Z,67.67
2022-12-01T01:11:01.854Z,67.90
2022-12-01T01:13:29.309Z,70.15
2022-12-01T01:16:22.825Z,73.93
2022-12-01T01:18:50.324Z,70.68
2022-12-01T01:21:21.045Z,68.53
2022-12-01T01:23:49.907Z,67.68
2022-12-01T01:26:19.494Z,71.75
2022-12-01T01:28:48.181Z,67.80
2022-12-01T01:31:20.677Z,64.18
2022-12-01T01:33:48.713Z,70.83
2022-12-01T01:36:17.568Z,62.58
2022-12-01T01:38:45.429Z,62.60
2022-12-01T01:41:13.025Z,69.72
2022-12-01T01:43:55.492Z,67.55
2022-12-01T01:46:31.396Z,65.53
2022-12-01T01:49:12.207Z,64.10
2022-12-01T01:51:50.594Z,67.80
2022-12-01T01:54:36.225Z,66.28
2022-12-01T01:57:07.753Z,62.58
2022-12-01T01:59:43.866Z,63.27
2022-12-01T02:02:13.173Z,63.03
2022-12-01T02:04:46.202Z,64.32
2022-12-01T02:07:17.980Z,68.10
2022-12-01T02:09:46.002Z,68.55
2022-12-01T02:12:42.846Z,68.83
2022-12-01T02:15:33.517Z,68.50
2022-12-01T02:18:07.158Z,75.75
2022-12-01T02:21:03.663Z,73.53
2022-12-01T02:23:59.963Z,72.75
2022-12-01T02:27:08.465Z,73.83
2022-12-01T02:30:14.882Z,69.10
2022-12-01T02:33:14.128Z,77.85
2022-12-01T02:36:12.919Z,74.47
2022-12-01T02:39:17.745Z,73.00
2022-12-01T02:41:52.651Z,70.87
2022-12-01T02:44:35.168Z,72.95
2022-12-01T02:47:12.879Z,71.53
2022-12-01T02:49:51.745Z,70.13
2022-12-01T02:52:20.498Z,74.45
2022-12-01T02:54:48.600Z,70.50
2022-12-01T02:57:17.180Z,77.82
2022-12-01T02:59:51.567Z,68.28
2022-12-01T03:02:24.655Z,74.70
2022-12-01T03:04:53.514Z,80.57
2022-12-01T03:07:51.944Z,70.60
2022-12-01T03:10:53.533Z,77.10
2022-12-01T03:13:53.839Z,72.20
2022-12-01T03:16:31.064Z,71.35
2022-12-01T03:19:14.404Z,69.88
2022-12-01T03:22:08.591Z,72.30
2022-12-01T03:24:37.002Z,73.93
2022-12-01T03:27:05.806Z,74.72
2022-12-01T03:29:43.135Z,76.70
2022-12-01T03:32:26.080Z,76.05
2022-12-01T03:35:21.414Z,76.80
2022-12-01T03:37:56.067Z,70.95
2022-12-01T03:40:27.217Z,69.43
2022-12-01T03:43:00.178Z,68.88
2022-12-01T03:45:39.948Z,71.30
2022-12-01T03:48:07.917Z,67.90
2022-12-01T03:50:56.799Z,65.88
2022-12-01T03:53:28.573Z,72.88
2022-12-01T03:56:05.832Z,74.60
2022-12-01T03:58:43.065Z,75.45
2022-12-01T04:01:10.418Z,67.67
2022-12-01T04:03:37.519Z,76.15
2022-12-01T04:06:05.155Z,68.57
2022-12-01T04:08:33.699Z,70.18
2022-12-01T04:11:00.750Z,71.60
2022-12-01T04:13:27.835Z,76.27
2022-12-01T04:15:55.891Z,77.43
2022-12-01T04:18:23.050Z,69.85
2022-12-01T04:20:50.921Z,76.72
2022-12-01T04:23:36.560Z,74.55
2022-12-01T04:26:05.729Z,73.50
2022-12-01T04:28:32.773Z,74.38
2022-12-01T04:30:59.950Z,83.18
2022-12-01T04:33:27.094Z,82.05
2022-12-01T04:35:59.380Z,75.72
2022-12-01T04:38:30.786Z,80.80
2022-12-01T04:40:58.317Z,79.95
2022-12-01T04:43:25.469Z,76.40
2022-12-01T04:45:52.515Z,78.93
2022-12-01T04:48:19.542Z,76.57
2022-12-01T04:50:49.729Z,79.70
2022-12-01T04:53:16.796Z,78.32
2022-12-01T04:55:43.899Z,76.70
2022-12-01T04:58:11.018Z,81.68
2022-12-01T05:00:38.225Z,84.25
2022-12-01T05:03:07.657Z,75.57
2022-12-01T05:05:36.694Z,81.72
2022-12-01T05:08:04.153Z,76.00
2022-12-01T05:10:31.434Z,82.38
2022-12-01T05:12:58.692Z,89.30
2022-12-01T05:15:25.767Z,81.63
2022-12-01T05:17:52.798Z,86.95
2022-12-01T05:20:44.342Z,85.07
2022-12-01T05:23:16.533Z,75.40
2022-12-01T05:25:44.207Z,78.65
2022-12-01T05:28:11.478Z,73.13
2022-12-01T05:30:38.582Z,78.85
2022-12-01T05:33:05.702Z,75.07
2022-12-01T05:35:35.624Z,82.15
2022-12-01T05:38:07.607Z,84.70
2022-12-01T05:40:36.779Z,92.17
2022-12-01T05:43:04.392Z,95.63
2022-12-01T05:45:32.087Z,92.22
2022-12-01T05:48:00.903Z,85.78
2022-12-01T05:50:30.157Z,93.22
2022-12-01T05:52:57.461Z,84.93
2022-12-01T05:55:24.593Z,103.03
2022-12-01T05:57:51.732Z,94.70
2022-12-01T06:00:19.423Z,103.57
2022-12-01T06:02:46.550Z,96.28
2022-12-01T06:05:13.638Z,102.03
2022-12-01T06:07:40.880Z,85.07
2022-12-01T06:10:09.840Z,85.78
2022-12-01T06:12:37.732Z,86.05
2022-12-01T06:15:06.693Z,85.90
2022-12-01T06:17:39.779Z,84.33
2022-12-01T06:20:09.270Z,87.97
2022-12-01T06:22:36.316Z,78.72
2022-12-01T06:25:03.887Z,74.43
2022-12-01T06:27:30.982Z,79.13
2022-12-01T06:29:58.097Z,83.60
2022-12-01T06:32:25.191Z,78.53
2022-12-01T06:34:52.362Z,85.13
2022-12-01T06:37:19.414Z,94.35
2022-12-01T06:39:46.686Z,78.00
2022-12-01T06:42:13.943Z,93.07
2022-12-01T06:44:41.009Z,83.97
2022-12-01T06:47:08.157Z,94.32
2022-12-01T06:49:35.732Z,93.85
2022-12-01T06:52:02.915Z,85.03
2022-12-01T06:54:30.070Z,89.80
2022-12-01T06:56:58.413Z,99.80
2022-12-01T06:59:25.989Z,92.40
2022-12-01T07:01:53.492Z,112.07
2022-12-01T07:04:20.954Z,105.57
2022-12-01T07:06:48.031Z,94.60
2022-12-01T07:09:15.179Z,108.97
2022-12-01T07:11:42.358Z,98.68
2022-12-01T07:14:22.432Z,100.65
2022-12-01T07:16:49.613Z,96.65
2022-12-01T07:19:16.778Z,86.40
2022-12-01T07:21:43.896Z,104.13
2022-12-01T07:24:12.575Z,86.75
2022-12-01T07:26:41.068Z,97.32
2022-12-01T07:29:09.288Z,93.03
2022-12-01T07:31:37.558Z,105.30
2022-12-01T07:34:05.816Z,117.63
2022-12-01T07:36:33.006Z,123.75
2022-12-01T07:39:00.343Z,135.90
2022-12-01T07:41:27.439Z,122.20
2022-12-01T07:43:55.760Z,142.57
2022-12-01T07:46:26.947Z,142.32
2022-12-01T07:48:55.599Z,144.52
2022-12-01T07:51:24.712Z,145.40
2022-12-01T07:53:53.279Z,146.73
2022-12-01T07:56:27.137Z,157.27
2022-12-01T07:58:54.585Z,153.52
2022-12-01T08:01:24.646Z,182.43
2022-12-01T08:03:55.379Z,167.27
2022-12-01T08:06:23.984Z,158.05
2022-12-01T08:08:51.559Z,162.70
2022-12-01T08:11:29.370Z,149.77
2022-12-01T08:13:56.511Z,194.10
2022-12-01T08:16:25.018Z,172.98
2022-12-01T08:18:52.454Z,165.40
2022-12-01T08:21:22.093Z,175.77
2022-12-01T08:23:53.234Z,169.23
2022-12-01T08:26:21.149Z,189.43
2022-12-01T08:28:49.054Z,175.10
2022-12-01T08:31:30.121Z,157.80
2022-12-01T08:33:58.146Z,185.03
2022-12-01T08:36:26.083Z,179.68
2022-12-01T08:38:55.578Z,166.68
2022-12-01T08:41:24.576Z,171.65
2022-12-01T08:44:00.104Z,158.25
2022-12-01T08:46:33.130Z,175.33
2022-12-01T08:49:01.273Z,179.07
2022-12-01T08:51:28.778Z,159.73
2022-12-01T08:53:57.921Z,159.75
2022-12-01T08:56:34.876Z,159.13
2022-12-01T08:59:02.330Z,142.20
2022-12-01T09:01:29.874Z,149.25
2022-12-01T09:04:08.784Z,143.93
2022-12-01T09:06:42.737Z,140.15
2022-12-01T09:09:13.134Z,134.73
2022-12-01T09:11:41.236Z,135.27
2022-12-01T09:14:08.340Z,124.72
2022-12-01T09:16:35.487Z,128.05
2022-12-01T09:19:03.292Z,122.28
2022-12-01T09:21:32.619Z,124.10
2022-12-01T09:24:01.353Z,125.47
2022-12-01T09:26:29.043Z,123.22
2022-12-01T09:29:00.654Z,127.00
2022-12-01T09:31:28.018Z,116.25
2022-12-01T09:33:57.720Z,113.22
2022-12-01T09:36:25.354Z,110.20
2022-12-01T09:38:52.731Z,105.65
2022-12-01T09:41:53.526Z,104.85
2022-12-01T09:44:42.714Z,96.18
2022-12-01T09:47:20.229Z,97.88
2022-12-01T09:49:56.702Z,87.13
2022-12-01T09:52:26.584Z,89.28
2022-12-01T09:54:55.844Z,86.32
2022-12-01T09:57:38.362Z,86.78
2022-12-01T10:00:20.210Z,81.13
2022-12-01T10:03:02.939Z,84.33
2022-12-01T10:06:18.047Z,96.45
2022-12-01T10:08:37.427Z,79.45
2022-12-01T10:11:31.615Z,83.57
2022-12-01T10:13:59.963Z,95.85
2022-12-01T10:16:49.206Z,83.50
2022-12-01T10:19:29.390Z,80.35
2022-12-01T10:22:18.340Z,82.10
2022-12-01T10:25:07.107Z,84.72
2022-12-01T10:27:49.229Z,80.55
2022-12-01T10:30:20.087Z,83.70
2022-12-01T10:33:17.762Z,87.82
2022-12-01T10:35:44.904Z,77.43
2022-12-01T10:38:24.410Z,78.60
2022-12-01T10:40:53.350Z,79.82
2022-12-01T10:43:39.918Z,79.83
2022-12-01T10:46:16.042Z,81.22
2022-12-01T10:48:58.827Z,80.28
2022-12-01T10:51:27.881Z,78.85
2022-12-01T10:54:11.544Z,81.50
2022-12-01T10:56:41.817Z,79.07
2022-12-01T10:59:23.711Z,72.38
2022-12-01T11:01:51.124Z,73.82
2022-12-01T11:04:46.511Z,81.00
2022-12-01T11:07:25.925Z,71.93
2022-12-01T11:10:36.689Z,76.53
2022-12-01T11:13:21.238Z,72.72
2022-12-01T11:16:01.690Z,75.28
2022-12-01T11:18:33.434Z,73.82
2022-12-01T11:21:26.349Z,82.72
2022-12-01T11:23:56.043Z,77.00
2022-12-01T11:26:32.521Z,75.53
2022-12-01T11:29:05.048Z,69.50
2022-12-01T11:31:43.923Z,65.07
2022-12-01T11:34:31.479Z,66.60
2022-12-01T11:37:06.831Z,65.97
2022-12-01T11:39:41.439Z,65.97
2022-12-01T11:42:14.478Z,68.45
2022-12-01T11:44:52.513Z,66.53
2022-12-01T11:47:24.796Z,69.40
2022-12-01T11:49:59.815Z,74.67
2022-12-01T11:52:36.902Z,72.47
2022-12-01T11:55:23.935Z,74.55
2022-12-01T11:57:54.996Z,74.95
2022-12-01T12:00:26.792Z,75.57
2022-12-01T12:03:26.424Z,70.00
2022-12-01T12:09:44.910Z,66.70
2022-12-01T12:12:55.731Z,66.75
2022-12-01T12:15:58.241Z,69.50
2022-12-01T12:19:33.819Z,73.60
2022-12-01T12:22:27.828Z,68.93
2022-12-01T12:25:41.751Z,61.13
2022-12-01T12:29:09.366Z,65.35
2022-12-01T12:31:59.399Z,62.42
2022-12-01T12:34:51.067Z,60.03
2022-12-01T12:37:42.282Z,60.42
2022-12-01T12:40:54.173Z,66.00
2022-12-01T12:43:51.038Z,53.50
2022-12-01T12:46:55.574Z,63.53
2022-12-01T12:49:54.105Z,57.80
2022-12-01T12:52:33.128Z,54.67
2022-12-01T12:55:12.276Z,55.63
2022-12-01T12:57:52.340Z,64.57
2022-12-01T13:00:25.535Z,53.67
2022-12-01T13:03:34.516Z,53.30
2022-12-01T13:06:12.093Z,59.50
2022-12-01T13:08:48.984Z,59.88
2022-12-01T13:11:32.995Z,56.67
2022-12-01T13:14:24.522Z,61.15
2022-12-01T13:16:58.138Z,58.03
2022-12-01T13:19:36.542Z,62.25
2022-12-01T13:22:07.245Z,60.58
2022-12-01T13:24:34.656Z,60.50
2022-12-01T13:27:11.989Z,61.83
2022-12-01T13:29:46.678Z,59.33
2022-12-01T13:32:37.519Z,67.53
2022-12-01T13:35:21.102Z,65.22
2022-12-01T13:37:48.538Z,58.47
2022-12-01T13:40:31.581Z,52.83
2022-12-01T13:43:10.260Z,57.17
2022-12-01T13:45:40.643Z,58.45
2022-12-01T13:48:46.589Z,56.65
2022-12-01T13:51:13.746Z,58.30
2022-12-01T13:53:57.738Z,54.08
2022-12-01T13:56:39.722Z,53.87
2022-12-01T14:00:23.866Z,51.42
2022-12-01T14:03:12.868Z,54.83
2022-12-01T14:05:39.919Z,61.22
2022-12-01T14:08:46.223Z,58.60
2022-12-01T14:11:23.903Z,60.97
2022-12-01T14:13:57.213Z,62.67
2022-12-01T14:16:25.184Z,58.00
2022-12-01T14:18:57.109Z,56.55
2022-12-01T14:21:47.663Z,58.45
2022-12-01T14:24:35.327Z,55.17
2022-12-01T14:27:04.678Z,59.03
2022-12-01T14:29:42.999Z,55.65
2022-12-01T14:32:21.806Z,53.70
2022-12-01T14:34:52.755Z,54.10
2022-12-01T14:37:25.061Z,57.47
2022-12-01T14:40:13.794Z,56.95
2022-12-01T14:43:03.286Z,53.95
2022-12-01T14:45:50.848Z,57.50
2022-12-01T14:48:27.005Z,58.50
2022-12-01T14:51:26.514Z,61.60
2022-12-01T14:53:56.244Z,59.55
2022-12-01T14:56:25.297Z,62.33
2022-12-01T14:58:59.806Z,57.65
2022-12-01T15:01:35.172Z,60.33
2022-12-01T15:04:05.330Z,56.20
2022-12-01T15:06:35.448Z,48.95
2022-12-01T15:09:35.373Z,58.03
2022-12-01T15:12:09.229Z,52.65
2022-12-01T15:14:49.746Z,54.97
2022-12-01T15:17:30.310Z,54.47
2022-12-01T15:19:58.064Z,53.40
2022-12-01T15:22:31.383Z,55.75
2022-12-01T15:25:35.111Z,61.45
2022-12-01T15:28:19.284Z,57.53
2022-12-01T15:30:51.825Z,62.03
2022-12-01T15:33:35.426Z,56.35
2022-12-01T15:36:05.495Z,56.40
2022-12-01T15:38:36.051Z,54.60
2022-12-01T15:43:58.917Z,54.80
2022-12-01T15:46:34.679Z,56.75
2022-12-01T15:49:16.519Z,57.78
2022-12-01T15:51:44.566Z,54.50
2022-12-01T15:54:24.781Z,53.95
2022-12-01T15:56:55.624Z,65.60
2022-12-01T15:59:40.903Z,57.95
2022-12-01T16:02:28.532Z,59.58
2022-12-01T16:05:16.347Z,59.63
2022-12-01T16:08:11.955Z,58.78
2022-12-01T16:10:37.234Z,59.00
2022-12-01T16:14:00.036Z,58.05
2022-12-01T16:16:41.778Z,64.43
2022-12-01T16:19:08.830Z,61.17
2022-12-01T16:21:53.926Z,61.00
2022-12-01T16:24:35.841Z,58.27
2022-12-01T16:27:07.886Z,59.67
2022-12-01T16:30:18.685Z,59.33
2022-12-01T16:32:45.842Z,59.40
2022-12-01T16:35:31.340Z,63.05
2022-12-01T16:37:59.621Z,67.27
2022-12-01T16:40:27.369Z,66.18
2022-12-01T16:42:54.422Z,68.93
2022-12-01T16:45:21.558Z,71.70
2022-12-01T16:47:49.548Z,64.18
2022-12-01T16:50:20.083Z,63.23
2022-12-01T16:52:47.834Z,63.10
2022-12-01T16:55:30.721Z,59.95
2022-12-01T16:57:57.845Z,63.60
2022-12-01T17:00:25.724Z,57.78
2022-12-01T17:02:53.105Z,60.17
2022-12-01T17:05:20.566Z,60.47
2022-12-01T17:07:48.327Z,61.58
2022-12-01T17:10:16.032Z,56.70
2022-12-01T17:12:43.338Z,59.10
2022-12-01T17:15:11.525Z,57.00
2022-12-01T17:17:38.624Z,57.75
2022-12-01T17:20:07.855Z,60.22
2022-12-01T17:22:35.206Z,57.95
2022-12-01T17:25:02.472Z,56.00
2022-12-01T17:27:31.493Z,58.43
2022-12-01T17:29:59.258Z,63.50
2022-12-01T17:32:27.751Z,58.13
2022-12-01T17:34:55.054Z,56.97
2022-12-01T17:37:22.144Z,55.42
2022-12-01T17:39:50.299Z,53.07
2022-12-01T17:42:17.410Z,58.20
2022-12-01T17:44:44.581Z,58.85
2022-12-01T17:47:12.584Z,57.17
2022-12-01T17:49:39.741Z,58.35
2022-12-01T17:52:08.152Z,54.00
2022-12-01T17:54:35.260Z,62.33
2022-12-01T17:57:02.376Z,59.08
2022-12-01T17:59:29.496Z,61.17
2022-12-01T18:01:56.624Z,61.08
2022-12-01T18:04:23.756Z,56.60
2022-12-01T18:06:54.242Z,57.58
2022-12-01T18:09:22.344Z,56.50
2022-12-01T18:11:49.744Z,55.22
2022-12-01T18:14:17.728Z,56.17
2022-12-01T18:16:45.807Z,59.13
2022-12-01T18:19:13.182Z,63.05
2022-12-01T18:21:40.836Z,61.85
2022-12-01T18:24:09.214Z,62.10
2022-12-01T18:26:39.842Z,69.43
2022-12-01T18:29:25.692Z,69.83
2022-12-01T18:31:57.017Z,81.43
2022-12-01T18:34:24.556Z,71.05
2022-12-01T18:36:51.733Z,72.63
2022-12-01T18:39:19.140Z,74.90
2022-12-01T18:41:46.318Z,69.57
2022-12-01T18:44:13.542Z,75.57
2022-12-01T18:46:41.214Z,76.72
2022-12-01T18:49:09.101Z,80.57
2022-12-01T18:51:37.763Z,73.82
2022-12-01T18:54:06.857Z,77.53
2022-12-01T18:56:34.402Z,73.65
2022-12-01T18:59:06.760Z,77.30
2022-12-01T19:01:41.216Z,74.93
2022-12-01T19:04:09.653Z,74.88
2022-12-01T19:06:38.827Z,75.43
2022-12-01T19:09:09.299Z,78.35
2022-12-01T19:11:36.932Z,83.07
2022-12-01T19:14:04.200Z,75.88
2022-12-01T19:16:31.490Z,82.85
2022-12-01T19:19:00.092Z,81.33
2022-12-01T19:21:27.162Z,81.82
2022-12-01T19:23:54.219Z,83.45
2022-12-01T19:26:22.950Z,82.82
2022-12-01T19:28:50.504Z,89.03
2022-12-01T19:31:24.749Z,93.53
2022-12-01T19:33:53.822Z,99.03
2022-12-01T19:36:25.258Z,100.95
2022-12-01T19:38:53.022Z,102.80
2022-12-01T19:41:25.125Z,103.78
2022-12-01T19:43:55.565Z,104.30
2022-12-01T19:46:26.993Z,104.38
2022-12-01T19:49:00.504Z,103.20
2022-12-01T19:51:35.477Z,98.22
2022-12-01T19:54:05.940Z,107.38
2022-12-01T19:56:33.549Z,100.23
2022-12-01T19:59:00.704Z,100.50
2022-12-01T20:01:28.349Z,103.65
2022-12-01T20:03:55.473Z,103.78
2022-12-01T20:06:29.689Z,116.60
2022-12-01T20:09:00.859Z,101.63
2022-12-01T20:11:29.875Z,110.97
2022-12-01T20:13:57.036Z,97.65
2022-12-01T20:16:26.659Z,112.30
2022-12-01T20:18:54.627Z,108.28
2022-12-01T20:21:26.051Z,99.37
2022-12-01T20:24:02.601Z,103.55
2022-12-01T20:26:38.367Z,102.50
2022-12-01T20:29:18.378Z,95.78
2022-12-01T20:31:46.360Z,95.35
2022-12-01T20:34:18.482Z,98.23
2022-12-01T20:36:45.893Z,98.45
2022-12-01T20:39:15.645Z,91.18
2022-12-01T20:41:44.902Z,98.45
2022-12-01T20:44:13.714Z,83.38
2022-12-01T20:46:40.981Z,89.03
2022-12-01T20:49:08.424Z,95.95
2022-12-01T20:51:35.570Z,94.13
2022-12-01T20:54:27.415Z,90.75
2022-12-01T20:56:52.108Z,86.22
2022-12-01T20:59:20.365Z,97.47
2022-12-01T21:01:47.571Z,98.68
2022-12-01T21:04:14.791Z,92.38
2022-12-01T21:06:42.216Z,89.22
2022-12-01T21:09:09.518Z,92.78
2022-12-01T21:12:08.025Z,95.00
2022-12-01T21:14:43.255Z,93.78
2022-12-01T21:17:34.513Z,93.65
2022-12-01T21:20:26.060Z,90.82
2022-12-01T21:22:54.516Z,90.05
2022-12-01T21:25:24.206Z,96.33
2022-12-01T21:27:52.311Z,93.28
2022-12-01T21:30:25.686Z,88.00
2022-12-01T21:32:54.282Z,90.50
2022-12-01T21:35:26.978Z,93.53
2022-12-01T21:38:01.901Z,95.37
2022-12-01T21:40:29.095Z,92.22
2022-12-01T21:43:09.640Z,87.53
2022-12-01T21:45:36.807Z,93.68
2022-12-01T21:48:17.879Z,90.45
2022-12-01T21:50:50.697Z,89.27
2022-12-01T21:53:20.975Z,95.22
2022-12-01T21:55:49.208Z,97.05
2022-12-01T21:58:34.818Z,92.15
2022-12-01T22:01:09.511Z,90.93
2022-12-01T22:03:44.781Z,87.43
2022-12-01T22:06:32.804Z,85.05
2022-12-01T22:09:29.719Z,90.30
2022-12-01T22:12:00.404Z,94.28
2022-12-01T22:14:35.602Z,92.38
2022-12-01T22:17:05.682Z,85.30
2022-12-01T22:19:39.675Z,90.07
2022-12-01T22:22:09.649Z,87.40
2022-12-01T22:25:00.118Z,92.07
2022-12-01T22:27:39.158Z,92.85
2022-12-01T22:30:06.189Z,89.97
2022-12-01T22:32:53.084Z,94.03
2022-12-01T22:35:26.156Z,92.05
2022-12-01T22:38:36.773Z,98.65
2022-12-01T22:41:12.378Z,101.18
2022-12-01T22:43:56.671Z,96.80
2022-12-01T22:46:25.452Z,98.22
2022-12-01T22:49:19.358Z,97.88
2022-12-01T22:52:01.222Z,95.25
2022-12-01T22:54:52.851Z,94.88
2022-12-01T22:57:34.824Z,101.93
2022-12-01T23:00:16.973Z,99.90
2022-12-01T23:02:44.508Z,92.80
2022-12-01T23:05:25.195Z,91.68
2022-12-01T23:07:54.503Z,88.28
2022-12-01T23:10:29.655Z,99.83
2022-12-01T23:13:09.542Z,93.80
2022-12-01T23:15:40.397Z,103.15
2022-12-01T23:18:44.658Z,94.20
2022-12-01T23:21:12.171Z,92.07
2022-12-01T23:23:39.311Z,95.43
2022-12-01T23:26:08.836Z,99.07
2022-12-01T23:28:39.036Z,99.40
2022-12-01T23:31:06.222Z,102.15
2022-12-01T23:33:35.078Z,91.28
2022-12-01T23:36:37.555Z,99.17
2022-12-01T23:39:12.122Z,102.30
2022-12-01T23:41:45.083Z,100.13
2022-12-01T23:44:30.905Z,99.82
2022-12-01T23:46:59.202Z,97.85
2022-12-01T23:49:31.164Z,99.67
2022-12-01T23:52:02.181Z,101.22
2022-12-01T23:54:34.726Z,108.15
2022-12-01T23:57:11.193Z,102.00
2022-12-01T23:59:38.952Z,109.32
